sensor_id;sensor_type;location;lat;lon;timestamp;pressure;altitude;pressure_sealevel;temperature;humidity
51528;BME280;37612;51.768;21.590;2023-08-12T04:34:20;100681.77;;;10.58;85.31
51528;BME280;37612;51.768;21.590;2023-08-12T09:40:39;100567.52;;;23.71;45.03
51528;BME280;37612;51.768;21.590;2023-08-12T13:18:48;100415.98;;;25.46;37.54
51528;BME280;37612;51.768;21.590;2023-08-12T13:34:24;100410.52;;;25.64;38.06
51528;BME280;37612;51.768;21.590;2023-08-12T13:50:03;100403.05;;;25.92;36.33
51528;BME280;37612;51.768;21.590;2023-08-12T15:40:00;100301.95;;;37.31;29.53
51528;BME280;37612;51.768;21.590;2023-08-12T16:05:41;100293.69;;;41.50;23.61
51528;BME280;37612;51.768;21.590;2023-08-12T16:10:25;100288.77;;;40.89;23.12
51528;BME280;37612;51.768;21.590;2023-08-12T16:14:55;100286.52;;;40.96;22.94
51528;BME280;37612;51.768;21.590;2023-08-12T16:19:18;100287.88;;;41.28;22.70
51528;BME280;37612;51.768;21.590;2023-08-12T16:23:59;100287.50;;;41.72;22.29
51528;BME280;37612;51.768;21.590;2023-08-12T16:28:15;100286.21;;;41.75;21.87
51528;BME280;37612;51.768;21.590;2023-08-12T16:32:32;100289.42;;;41.66;21.37
51528;BME280;37612;51.768;21.590;2023-08-12T16:37:09;100287.39;;;41.33;21.33
51528;BME280;37612;51.768;21.590;2023-08-12T16:41:36;100284.46;;;40.64;21.85
51528;BME280;37612;51.768;21.590;2023-08-12T16:45:56;100284.78;;;40.32;21.89
51528;BME280;37612;51.768;21.590;2023-08-12T16:50:14;100279.48;;;40.25;21.94
51528;BME280;37612;51.768;21.590;2023-08-12T16:54:21;100275.99;;;39.95;22.27
51528;BME280;37612;51.768;21.590;2023-08-12T16:58:25;100272.52;;;39.31;22.47
51528;BME280;37612;51.768;21.590;2023-08-12T17:02:30;100282.09;;;38.02;23.14
51528;BME280;37612;51.768;21.590;2023-08-12T17:06:32;100280.84;;;36.04;24.70
51528;BME280;37612;51.768;21.590;2023-08-12T17:10:37;100277.98;;;33.95;25.81
51528;BME280;37612;51.768;21.590;2023-08-12T17:14:39;100282.91;;;32.14;27.58
51528;BME280;37612;51.768;21.590;2023-08-12T17:18:40;100282.84;;;30.68;28.83
51528;BME280;37612;51.768;21.590;2023-08-12T17:22:41;100285.11;;;29.33;29.90
51528;BME280;37612;51.768;21.590;2023-08-12T17:26:42;100284.25;;;28.12;31.05
51528;BME280;37612;51.768;21.590;2023-08-12T17:30:44;100281.83;;;27.06;32.19
51528;BME280;37612;51.768;21.590;2023-08-12T17:34:44;100283.09;;;26.17;33.13
51528;BME280;37612;51.768;21.590;2023-08-12T17:38:46;100282.21;;;25.37;34.58
51528;BME280;37612;51.768;21.590;2023-08-12T17:42:47;100286.90;;;24.68;35.49
51528;BME280;37612;51.768;21.590;2023-08-12T17:46:48;100282.56;;;24.09;36.68
51528;BME280;37612;51.768;21.590;2023-08-12T17:50:49;100284.02;;;23.51;37.93
51528;BME280;37612;51.768;21.590;2023-08-12T17:54:50;100285.98;;;22.97;39.03
51528;BME280;37612;51.768;21.590;2023-08-12T17:58:52;100286.05;;;22.45;39.83
51528;BME280;37612;51.768;21.590;2023-08-12T18:02:53;100279.23;;;22.00;40.35
51528;BME280;37612;51.768;21.590;2023-08-12T18:06:54;100280.46;;;21.62;41.17
51528;BME280;37612;51.768;21.590;2023-08-12T18:10:55;100279.29;;;21.29;42.15
51528;BME280;37612;51.768;21.590;2023-08-12T18:14:57;100284.32;;;21.00;42.92
51528;BME280;37612;51.768;21.590;2023-08-12T18:18:59;100286.30;;;20.73;44.29
51528;BME280;37612;51.768;21.590;2023-08-12T18:23:02;100288.88;;;20.44;45.03
51528;BME280;37612;51.768;21.590;2023-08-12T18:27:04;100290.73;;;20.18;45.89
51528;BME280;37612;51.768;21.590;2023-08-12T18:31:05;100288.20;;;19.90;46.44
51528;BME280;37612;51.768;21.590;2023-08-12T18:35:07;100293.31;;;19.64;46.58
51528;BME280;37612;51.768;21.590;2023-08-12T18:39:08;100294.48;;;19.41;46.95
51528;BME280;37612;51.768;21.590;2023-08-12T18:43:09;100294.66;;;19.22;47.51
51528;BME280;37612;51.768;21.590;2023-08-12T18:47:11;100288.51;;;19.06;48.50
51528;BME280;37612;51.768;21.590;2023-08-12T18:51:15;100287.91;;;18.89;49.11
51528;BME280;37612;51.768;21.590;2023-08-12T18:55:16;100287.77;;;18.72;50.33
51528;BME280;37612;51.768;21.590;2023-08-12T18:59:20;100290.36;;;18.56;51.37
51528;BME280;37612;51.768;21.590;2023-08-12T19:03:26;100296.59;;;18.38;51.92
51528;BME280;37612;51.768;21.590;2023-08-12T19:07:32;100297.42;;;18.24;52.69
51528;BME280;37612;51.768;21.590;2023-08-12T19:11:35;100300.48;;;18.10;53.22
51528;BME280;37612;51.768;21.590;2023-08-12T19:15:38;100307.14;;;17.94;53.68
51528;BME280;37612;51.768;21.590;2023-08-12T19:19:39;100303.11;;;17.77;53.72
51528;BME280;37612;51.768;21.590;2023-08-12T19:23:41;100305.98;;;17.62;53.89
51528;BME280;37612;51.768;21.590;2023-08-12T19:27:42;100312.05;;;17.47;54.48
51528;BME280;37612;51.768;21.590;2023-08-12T19:31:51;100314.23;;;17.36;55.38
51528;BME280;37612;51.768;21.590;2023-08-12T19:35:52;100309.23;;;17.29;55.54
51528;BME280;37612;51.768;21.590;2023-08-12T19:39:53;100310.31;;;17.20;55.91
51528;BME280;37612;51.768;21.590;2023-08-12T19:43:55;100308.86;;;17.08;56.22
51528;BME280;37612;51.768;21.590;2023-08-12T19:48:04;100306.70;;;16.99;57.08
51528;BME280;37612;51.768;21.590;2023-08-12T19:52:08;100304.16;;;16.90;57.36
51528;BME280;37612;51.768;21.590;2023-08-12T19:56:10;100303.86;;;16.80;57.56
51528;BME280;37612;51.768;21.590;2023-08-12T20:00:15;100304.77;;;16.61;58.11
51528;BME280;37612;51.768;21.590;2023-08-12T20:04:17;100295.73;;;16.43;58.48
51528;BME280;37612;51.768;21.590;2023-08-12T20:08:23;100295.50;;;16.34;58.60
51528;BME280;37612;51.768;21.590;2023-08-12T20:12:25;100298.23;;;16.29;58.43
51528;BME280;37612;51.768;21.590;2023-08-12T20:16:26;100296.84;;;16.27;58.75
51528;BME280;37612;51.768;21.590;2023-08-12T20:20:28;100300.52;;;16.24;59.40
51528;BME280;37612;51.768;21.590;2023-08-12T20:24:29;100295.55;;;16.19;59.63
51528;BME280;37612;51.768;21.590;2023-08-12T20:28:31;100300.75;;;16.08;59.90
51528;BME280;37612;51.768;21.590;2023-08-12T20:32:33;100301.73;;;15.95;60.21
51528;BME280;37612;51.768;21.590;2023-08-12T20:36:35;100307.95;;;15.83;60.19
51528;BME280;37612;51.768;21.590;2023-08-12T20:40:38;100311.74;;;15.76;60.46
51528;BME280;37612;51.768;21.590;2023-08-12T20:44:39;100317.03;;;15.76;60.90
51528;BME280;37612;51.768;21.590;2023-08-12T20:48:42;100311.98;;;15.74;61.16
51528;BME280;37612;51.768;21.590;2023-08-12T20:52:43;100315.66;;;15.70;61.55
51528;BME280;37612;51.768;21.590;2023-08-12T20:56:45;100312.16;;;15.63;61.69
51528;BME280;37612;51.768;21.590;2023-08-12T21:00:47;100314.14;;;15.51;61.80
51528;BME280;37612;51.768;21.590;2023-08-12T21:04:49;100310.42;;;15.40;62.40
51528;BME280;37612;51.768;21.590;2023-08-12T21:08:52;100307.92;;;15.31;62.47
51528;BME280;37612;51.768;21.590;2023-08-12T21:12:53;100315.04;;;15.30;62.47
51528;BME280;37612;51.768;21.590;2023-08-12T21:16:58;100316.33;;;15.27;62.64
51528;BME280;37612;51.768;21.590;2023-08-12T21:22:04;100311.45;;;15.21;63.46
51528;BME280;37612;51.768;21.590;2023-08-12T21:26:46;100303.45;;;15.12;63.64
51528;BME280;37612;51.768;21.590;2023-08-12T21:32:00;100296.23;;;15.01;63.92
51528;BME280;37612;51.768;21.590;2023-08-12T21:36:27;100292.20;;;15.00;64.01
51528;BME280;37612;51.768;21.590;2023-08-12T21:40:28;100291.83;;;15.02;64.33
51528;BME280;37612;51.768;21.590;2023-08-12T21:44:37;100294.56;;;15.02;64.72
51528;BME280;37612;51.768;21.590;2023-08-12T21:49:00;100294.20;;;14.99;65.62
51528;BME280;37612;51.768;21.590;2023-08-12T21:53:02;100295.38;;;14.96;65.97
51528;BME280;37612;51.768;21.590;2023-08-12T21:57:03;100292.80;;;14.93;65.81
51528;BME280;37612;51.768;21.590;2023-08-12T22:01:21;100285.94;;;14.87;66.13
51528;BME280;37612;51.768;21.590;2023-08-12T22:05:24;100278.58;;;14.84;66.11
51528;BME280;37612;51.768;21.590;2023-08-12T22:10:09;100274.92;;;14.77;66.35
51528;BME280;37612;51.768;21.590;2023-08-12T22:14:10;100270.96;;;14.71;66.64
51528;BME280;37612;51.768;21.590;2023-08-12T22:23:37;100262.59;;;14.64;67.19
51528;BME280;37612;51.768;21.590;2023-08-12T22:27:39;100261.67;;;14.62;67.09
51528;BME280;37612;51.768;21.590;2023-08-12T22:31:40;100261.47;;;14.60;67.86
51528;BME280;37612;51.768;21.590;2023-08-12T22:35:43;100261.25;;;14.57;67.86
51528;BME280;37612;51.768;21.590;2023-08-12T22:40:05;100268.45;;;14.54;68.08
51528;BME280;37612;51.768;21.590;2023-08-12T22:45:06;100266.87;;;14.50;68.73
51528;BME280;37612;51.768;21.590;2023-08-12T22:50:22;100270.34;;;14.54;69.05
51528;BME280;37612;51.768;21.590;2023-08-12T22:54:47;100268.12;;;14.54;69.02
51528;BME280;37612;51.768;21.590;2023-08-12T22:58:53;100269.33;;;14.50;69.52
51528;BME280;37612;51.768;21.590;2023-08-12T23:02:56;100262.19;;;14.47;69.68
51528;BME280;37612;51.768;21.590;2023-08-12T23:11:36;100262.73;;;14.38;70.07
51528;BME280;37612;51.768;21.590;2023-08-12T23:15:37;100260.74;;;14.35;69.92
51528;BME280;37612;51.768;21.590;2023-08-12T23:19:39;100257.69;;;14.28;70.30
51528;BME280;37612;51.768;21.590;2023-08-12T23:23:41;100256.45;;;14.21;70.80
51528;BME280;37612;51.768;21.590;2023-08-12T23:27:44;100251.72;;;14.15;71.04
51528;BME280;37612;51.768;21.590;2023-08-12T23:31:46;100245.33;;;14.10;70.86
51528;BME280;37612;51.768;21.590;2023-08-12T23:35:49;100242.05;;;14.09;71.09
51528;BME280;37612;51.768;21.590;2023-08-12T23:39:50;100234.48;;;14.06;71.26
51528;BME280;37612;51.768;21.590;2023-08-12T23:43:51;100232.27;;;13.97;71.34
51528;BME280;37612;51.768;21.590;2023-08-12T23:47:54;100231.88;;;13.90;71.74
51528;BME280;37612;51.768;21.590;2023-08-12T23:51:55;100235.27;;;13.90;71.66
51528;BME280;37612;51.768;21.590;2023-08-12T23:56:23;100230.92;;;13.87;71.65
